sensor_id;sensor_type;location;lat;lon;timestamp;pressure;altitude;pressure_sealevel;temperature;humidity
58245;BME280;44550;43.864;25.986;2023-02-28T00:01:58;102093.31;;;3.46;100.00
58245;BME280;44550;43.864;25.986;2023-02-28T00:05:58;102091.81;;;3.49;100.00
58245;BME280;44550;43.864;25.986;2023-02-28T00:09:57;102095.19;;;3.48;100.00
58245;BME280;44550;43.864;25.986;2023-02-28T00:13:58;102094.13;;;3.45;100.00
58245;BME280;44550;43.864;25.986;2023-02-28T00:17:58;102103.41;;;3.41;100.00
58245;BME280;44550;43.864;25.986;2023-02-28T00:21:57;102114.00;;;3.46;100.00
58245;BME280;44550;43.864;25.986;2023-02-28T00:25:58;102125.06;;;3.43;100.00
58245;BME280;44550;43.864;25.986;2023-02-28T00:29:59;102115.72;;;3.45;100.00
58245;BME280;44550;43.864;25.986;2023-02-28T00:33:59;102104.44;;;3.60;100.00
58245;BME280;44550;43.864;25.986;2023-02-28T00:37:59;102113.09;;;3.60;100.00
58245;BME280;44550;43.864;25.986;2023-02-28T00:41:59;102116.06;;;3.51;100.00
58245;BME280;44550;43.864;25.986;2023-02-28T00:46:00;102126.84;;;3.59;100.00
58245;BME280;44550;43.864;25.986;2023-02-28T00:50:00;102127.91;;;3.63;100.00
58245;BME280;44550;43.864;25.986;2023-02-28T00:53:59;102134.94;;;3.50;100.00
58245;BME280;44550;43.864;25.986;2023-02-28T00:57:59;102137.53;;;3.50;100.00
58245;BME280;44550;43.864;25.986;2023-02-28T01:01:59;102133.00;;;3.46;100.00
58245;BME280;44550;43.864;25.986;2023-02-28T01:05:59;102129.78;;;3.50;100.00
58245;BME280;44550;43.864;25.986;2023-02-28T01:09:58;102139.06;;;3.32;100.00
58245;BME280;44550;43.864;25.986;2023-02-28T01:13:57;102145.00;;;3.31;100.00
58245;BME280;44550;43.864;25.986;2023-02-28T01:17:59;102137.25;;;3.31;100.00
58245;BME280;44550;43.864;25.986;2023-02-28T01:22:00;102139.06;;;3.32;100.00
58245;BME280;44550;43.864;25.986;2023-02-28T01:26:03;102145.50;;;3.39;100.00
58245;BME280;44550;43.864;25.986;2023-02-28T01:30:08;102165.47;;;3.41;100.00
58245;BME280;44550;43.864;25.986;2023-02-28T01:34:10;102158.78;;;3.45;100.00
58245;BME280;44550;43.864;25.986;2023-02-28T01:38:09;102164.72;;;3.44;100.00
58245;BME280;44550;43.864;25.986;2023-02-28T01:42:18;102163.94;;;3.45;100.00
58245;BME280;44550;43.864;25.986;2023-02-28T01:46:18;102161.25;;;3.43;100.00
58245;BME280;44550;43.864;25.986;2023-02-28T01:50:21;102175.00;;;3.42;100.00
58245;BME280;44550;43.864;25.986;2023-02-28T01:54:22;102198.44;;;3.45;100.00
58245;BME280;44550;43.864;25.986;2023-02-28T01:58:22;102202.56;;;3.42;100.00
58245;BME280;44550;43.864;25.986;2023-02-28T02:02:22;102209.38;;;3.26;100.00
58245;BME280;44550;43.864;25.986;2023-02-28T02:06:25;102218.78;;;3.39;100.00
58245;BME280;44550;43.864;25.986;2023-02-28T02:10:27;102207.34;;;3.36;100.00
58245;BME280;44550;43.864;25.986;2023-02-28T02:14:33;102197.34;;;3.27;100.00
58245;BME280;44550;43.864;25.986;2023-02-28T02:18:38;102199.16;;;3.28;100.00
58245;BME280;44550;43.864;25.986;2023-02-28T02:22:53;102166.13;;;3.24;100.00
58245;BME280;44550;43.864;25.986;2023-02-28T02:27:11;102140.22;;;3.22;100.00
58245;BME280;44550;43.864;25.986;2023-02-28T02:31:24;102131.91;;;3.13;100.00
58245;BME280;44550;43.864;25.986;2023-02-28T02:35:30;102151.53;;;3.10;100.00
58245;BME280;44550;43.864;25.986;2023-02-28T02:39:33;102178.88;;;3.06;100.00
58245;BME280;44550;43.864;25.986;2023-02-28T02:43:34;102181.91;;;3.14;100.00
58245;BME280;44550;43.864;25.986;2023-02-28T02:47:34;102183.53;;;3.12;100.00
58245;BME280;44550;43.864;25.986;2023-02-28T02:51:37;102184.75;;;3.03;100.00
58245;BME280;44550;43.864;25.986;2023-02-28T02:55:38;102180.75;;;3.09;100.00
58245;BME280;44550;43.864;25.986;2023-02-28T02:59:40;102190.97;;;3.07;100.00
58245;BME280;44550;43.864;25.986;2023-02-28T03:03:40;102196.78;;;3.03;100.00
58245;BME280;44550;43.864;25.986;2023-02-28T03:07:42;102209.19;;;3.09;100.00
58245;BME280;44550;43.864;25.986;2023-02-28T03:11:42;102218.00;;;3.12;100.00
58245;BME280;44550;43.864;25.986;2023-02-28T03:15:44;102220.47;;;3.11;100.00
58245;BME280;44550;43.864;25.986;2023-02-28T03:19:55;102222.47;;;3.15;100.00
58245;BME280;44550;43.864;25.986;2023-02-28T03:24:07;102216.13;;;3.10;100.00
58245;BME280;44550;43.864;25.986;2023-02-28T03:28:09;102209.88;;;3.06;100.00
58245;BME280;44550;43.864;25.986;2023-02-28T03:32:13;102230.28;;;3.01;100.00
58245;BME280;44550;43.864;25.986;2023-02-28T03:36:18;102234.03;;;3.06;100.00
58245;BME280;44550;43.864;25.986;2023-02-28T03:40:22;102234.13;;;3.08;100.00
58245;BME280;44550;43.864;25.986;2023-02-28T03:44:24;102232.75;;;3.00;100.00
58245;BME280;44550;43.864;25.986;2023-02-28T03:48:25;102235.63;;;3.04;100.00
58245;BME280;44550;43.864;25.986;2023-02-28T03:52:27;102236.41;;;3.03;100.00
58245;BME280;44550;43.864;25.986;2023-02-28T03:56:30;102243.75;;;3.11;100.00
58245;BME280;44550;43.864;25.986;2023-02-28T04:00:32;102242.84;;;3.10;100.00
58245;BME280;44550;43.864;25.986;2023-02-28T04:04:34;102246.09;;;3.21;100.00
58245;BME280;44550;43.864;25.986;2023-02-28T04:08:33;102242.53;;;3.19;100.00
58245;BME280;44550;43.864;25.986;2023-02-28T04:12:35;102249.22;;;3.15;100.00
58245;BME280;44550;43.864;25.986;2023-02-28T04:16:35;102240.19;;;3.09;100.00
58245;BME280;44550;43.864;25.986;2023-02-28T04:20:35;102243.31;;;3.18;100.00
58245;BME280;44550;43.864;25.986;2023-02-28T04:24:35;102242.63;;;3.20;100.00
58245;BME280;44550;43.864;25.986;2023-02-28T04:28:41;102239.56;;;3.13;100.00
58245;BME280;44550;43.864;25.986;2023-02-28T04:32:40;102225.66;;;3.11;100.00
58245;BME280;44550;43.864;25.986;2023-02-28T04:36:39;102227.84;;;3.04;100.00
58245;BME280;44550;43.864;25.986;2023-02-28T04:40:44;102224.88;;;3.12;100.00
58245;BME280;44550;43.864;25.986;2023-02-28T04:44:45;102222.00;;;3.07;100.00
58245;BME280;44550;43.864;25.986;2023-02-28T04:48:44;102230.13;;;3.13;100.00
58245;BME280;44550;43.864;25.986;2023-02-28T04:52:43;102226.19;;;3.05;100.00
58245;BME280;44550;43.864;25.986;2023-02-28T04:56:43;102221.09;;;3.06;100.00
58245;BME280;44550;43.864;25.986;2023-02-28T05:00:45;102226.44;;;2.95;100.00
58245;BME280;44550;43.864;25.986;2023-02-28T05:04:44;102229.28;;;2.99;100.00
58245;BME280;44550;43.864;25.986;2023-02-28T05:08:44;102230.78;;;2.96;100.00
58245;BME280;44550;43.864;25.986;2023-02-28T05:12:49;102245.47;;;2.97;100.00
58245;BME280;44550;43.864;25.986;2023-02-28T05:16:51;102245.59;;;2.98;100.00
58245;BME280;44550;43.864;25.986;2023-02-28T05:20:50;102258.53;;;2.98;100.00
58245;BME280;44550;43.864;25.986;2023-02-28T05:24:50;102263.69;;;2.98;100.00
58245;BME280;44550;43.864;25.986;2023-02-28T05:28:50;102260.03;;;2.95;100.00
58245;BME280;44550;43.864;25.986;2023-02-28T05:32:54;102250.59;;;3.10;100.00
58245;BME280;44550;43.864;25.986;2023-02-28T05:36:56;102255.00;;;2.98;100.00
58245;BME280;44550;43.864;25.986;2023-02-28T05:40:55;102252.81;;;3.04;100.00
58245;BME280;44550;43.864;25.986;2023-02-28T05:44:55;102264.75;;;3.02;100.00
58245;BME280;44550;43.864;25.986;2023-02-28T05:48:56;102270.41;;;3.10;100.00
58245;BME280;44550;43.864;25.986;2023-02-28T05:52:57;102276.88;;;3.03;100.00
58245;BME280;44550;43.864;25.986;2023-02-28T05:56:55;102286.09;;;3.13;100.00
58245;BME280;44550;43.864;25.986;2023-02-28T06:00:55;102301.78;;;3.16;100.00
58245;BME280;44550;43.864;25.986;2023-02-28T06:04:56;102317.09;;;3.13;100.00
58245;BME280;44550;43.864;25.986;2023-02-28T06:08:56;102325.94;;;3.16;100.00
58245;BME280;44550;43.864;25.986;2023-02-28T06:13:09;102325.28;;;3.05;100.00
58245;BME280;44550;43.864;25.986;2023-02-28T06:17:17;102330.91;;;3.13;100.00
58245;BME280;44550;43.864;25.986;2023-02-28T06:21:18;102333.50;;;3.13;100.00
58245;BME280;44550;43.864;25.986;2023-02-28T06:25:17;102321.66;;;3.17;100.00
58245;BME280;44550;43.864;25.986;2023-02-28T06:29:16;102313.03;;;3.16;100.00
58245;BME280;44550;43.864;25.986;2023-02-28T06:33:15;102313.53;;;3.11;100.00
58245;BME280;44550;43.864;25.986;2023-02-28T06:37:19;102309.03;;;3.21;100.00
58245;BME280;44550;43.864;25.986;2023-02-28T06:41:23;102321.09;;;3.08;100.00
58245;BME280;44550;43.864;25.986;2023-02-28T06:45:31;102296.66;;;3.02;100.00
58245;BME280;44550;43.864;25.986;2023-02-28T06:49:31;102309.84;;;3.07;100.00
58245;BME280;44550;43.864;25.986;2023-02-28T06:53:56;102299.47;;;3.20;100.00
58245;BME280;44550;43.864;25.986;2023-02-28T06:58:27;102297.19;;;3.25;100.00
58245;BME280;44550;43.864;25.986;2023-02-28T07:02:33;102309.94;;;3.22;100.00
58245;BME280;44550;43.864;25.986;2023-02-28T07:06:58;102307.19;;;3.34;100.00
58245;BME280;44550;43.864;25.986;2023-02-28T07:11:01;102311.28;;;3.30;100.00
58245;BME280;44550;43.864;25.986;2023-02-28T07:15:14;102306.63;;;3.24;100.00
58245;BME280;44550;43.864;25.986;2023-02-28T07:19:13;102302.50;;;3.41;100.00
58245;BME280;44550;43.864;25.986;2023-02-28T07:23:16;102295.97;;;3.33;100.00
58245;BME280;44550;43.864;25.986;2023-02-28T07:27:25;102307.44;;;3.51;100.00
58245;BME280;44550;43.864;25.986;2023-02-28T07:31:25;102316.78;;;3.49;100.00
58245;BME280;44550;43.864;25.986;2023-02-28T07:35:27;102321.31;;;3.39;100.00
58245;BME280;44550;43.864;25.986;2023-02-28T07:39:26;102325.81;;;3.28;100.00
58245;BME280;44550;43.864;25.986;2023-02-28T07:43:28;102324.22;;;3.30;100.00
58245;BME280;44550;43.864;25.986;2023-02-28T07:47:39;102328.44;;;3.43;100.00
58245;BME280;44550;43.864;25.986;2023-02-28T07:51:40;102324.81;;;3.54;100.00
58245;BME280;44550;43.864;25.986;2023-02-28T07:55:39;102332.75;;;3.57;100.00
58245;BME280;44550;43.864;25.986;2023-02-28T07:59:44;102342.38;;;3.45;100.00
58245;BME280;44550;43.864;25.986;2023-02-28T08:03:43;102330.72;;;3.66;100.00
58245;BME280;44550;43.864;25.986;2023-02-28T08:07:42;102329.22;;;3.70;100.00
58245;BME280;44550;43.864;25.986;2023-02-28T08:11:45;102331.09;;;3.58;100.00
58245;BME280;44550;43.864;25.986;2023-02-28T08:20:48;102333.50;;;3.69;100.00
58245;BME280;44550;43.864;25.986;2023-02-28T08:27:30;102346.44;;;3.69;100.00
58245;BME280;44550;43.864;25.986;2023-02-28T08:30:21;102352.88;;;3.76;100.00
58245;BME280;44550;43.864;25.986;2023-02-28T08:45:57;102353.31;;;3.84;100.00
58245;BME280;44550;43.864;25.986;2023-02-28T08:50:07;102348.00;;;3.95;100.00
58245;BME280;44550;43.864;25.986;2023-02-28T08:54:27;102341.06;;;3.94;100.00
58245;BME280;44550;43.864;25.986;2023-02-28T08:58:41;102336.22;;;4.15;100.00
58245;BME280;44550;43.864;25.986;2023-02-28T09:02:51;102336.97;;;4.28;100.00
58245;BME280;44550;43.864;25.986;2023-02-28T09:07:09;102331.78;;;4.28;100.00
58245;BME280;44550;43.864;25.986;2023-02-28T09:11:35;102333.03;;;4.34;100.00
58245;BME280;44550;43.864;25.986;2023-02-28T09:15:51;102340.16;;;4.38;100.00
58245;BME280;44550;43.864;25.986;2023-02-28T09:20:01;102327.22;;;4.38;100.00
58245;BME280;44550;43.864;25.986;2023-02-28T09:24:14;102331.41;;;4.36;100.00
58245;BME280;44550;43.864;25.986;2023-02-28T09:28:45;102342.63;;;4.37;100.00
58245;BME280;44550;43.864;25.986;2023-02-28T09:32:50;102341.16;;;4.40;100.00
58245;BME280;44550;43.864;25.986;2023-02-28T09:41:27;102335.59;;;4.49;100.00
58245;BME280;44550;43.864;25.986;2023-02-28T09:46:02;102341.03;;;4.39;100.00
58245;BME280;44550;43.864;25.986;2023-02-28T09:50:21;102326.94;;;4.48;100.00
58245;BME280;44550;43.864;25.986;2023-02-28T09:54:30;102321.22;;;4.39;100.00
58245;BME280;44550;43.864;25.986;2023-02-28T09:58:39;102333.63;;;4.45;100.00
58245;BME280;44550;43.864;25.986;2023-02-28T10:02:58;;;;4.55;
58245;BME280;44550;43.864;25.986;2023-02-28T10:07:25;102328.88;;;4.67;100.00
58245;BME280;44550;43.864;25.986;2023-02-28T10:11:48;102327.59;;;4.76;100.00
58245;BME280;44550;43.864;25.986;2023-02-28T10:15:58;102326.63;;;4.74;100.00
58245;BME280;44550;43.864;25.986;2023-02-28T10:20:07;102327.41;;;4.72;100.00
58245;BME280;44550;43.864;25.986;2023-02-28T10:24:20;102331.16;;;4.78;100.00
58245;BME280;44550;43.864;25.986;2023-02-28T10:28:24;102333.69;;;4.92;100.00
58245;BME280;44550;43.864;25.986;2023-02-28T10:32:29;102322.38;;;4.90;100.00
58245;BME280;44550;43.864;25.986;2023-02-28T10:36:33;102318.72;;;4.87;100.00
58245;BME280;44550;43.864;25.986;2023-02-28T10:40:42;102321.56;;;4.91;100.00
58245;BME280;44550;43.864;25.986;2023-02-28T10:45:02;102324.38;;;4.96;100.00
58245;BME280;44550;43.864;25.986;2023-02-28T10:49:20;102314.25;;;4.84;100.00
58245;BME280;44550;43.864;25.986;2023-02-28T10:53:28;102315.38;;;4.89;100.00
58245;BME280;44550;43.864;25.986;2023-02-28T10:57:38;102301.81;;;4.93;100.00
58245;BME280;44550;43.864;25.986;2023-02-28T11:01:46;102300.88;;;4.93;100.00
58245;BME280;44550;43.864;25.986;2023-02-28T11:05:53;102298.00;;;4.87;100.00
58245;BME280;44550;43.864;25.986;2023-02-28T11:15:01;102291.03;;;5.02;100.00
58245;BME280;44550;43.864;25.986;2023-02-28T11:19:07;102288.59;;;5.05;100.00
58245;BME280;44550;43.864;25.986;2023-02-28T11:23:24;102298.16;;;5.06;100.00
58245;BME280;44550;43.864;25.986;2023-02-28T11:37:11;102272.31;;;4.91;100.00
58245;BME280;44550;43.864;25.986;2023-02-28T12:08:05;102244.94;;;4.80;100.00
58245;BME280;44550;43.864;25.986;2023-02-28T12:12:23;102245.06;;;4.83;100.00
58245;BME280;44550;43.864;25.986;2023-02-28T12:16:47;102250.19;;;4.82;100.00
58245;BME280;44550;43.864;25.986;2023-02-28T12:21:01;102262.44;;;4.84;100.00
58245;BME280;44550;43.864;25.986;2023-02-28T12:25:20;102250.75;;;4.92;100.00
58245;BME280;44550;43.864;25.986;2023-02-28T12:33:50;102260.78;;;4.86;100.00
58245;BME280;44550;43.864;25.986;2023-02-28T12:38:09;102249.53;;;4.86;100.00
58245;BME280;44550;43.864;25.986;2023-02-28T12:42:25;102251.56;;;4.91;100.00
58245;BME280;44550;43.864;25.986;2023-02-28T12:46:30;102253.28;;;4.91;100.00
58245;BME280;44550;43.864;25.986;2023-02-28T12:50:37;102245.72;;;4.79;100.00
58245;BME280;44550;43.864;25.986;2023-02-28T12:54:43;102242.66;;;4.86;100.00
58245;BME280;44550;43.864;25.986;2023-02-28T12:59:01;102239.59;;;4.93;100.00
58245;BME280;44550;43.864;25.986;2023-02-28T13:03:30;102240.94;;;5.03;100.00
58245;BME280;44550;43.864;25.986;2023-02-28T13:07:55;102240.16;;;5.04;100.00
58245;BME280;44550;43.864;25.986;2023-02-28T13:11:59;102247.78;;;5.17;100.00
58245;BME280;44550;43.864;25.986;2023-02-28T13:16:11;102229.47;;;5.14;100.00
58245;BME280;44550;43.864;25.986;2023-02-28T13:20:33;102224.69;;;5.22;100.00
58245;BME280;44550;43.864;25.986;2023-02-28T13:24:42;102224.28;;;5.31;100.00
58245;BME280;44550;43.864;25.986;2023-02-28T13:33:24;102212.91;;;5.29;100.00
58245;BME280;44550;43.864;25.986;2023-02-28T13:37:34;102214.28;;;5.38;100.00
58245;BME280;44550;43.864;25.986;2023-02-28T13:41:43;102218.09;;;5.45;100.00
58245;BME280;44550;43.864;25.986;2023-02-28T13:50:18;102226.84;;;5.47;100.00
58245;BME280;44550;43.864;25.986;2023-02-28T13:54:33;102216.81;;;5.37;100.00
58245;BME280;44550;43.864;25.986;2023-02-28T13:58:46;102208.22;;;5.38;100.00
58245;BME280;44550;43.864;25.986;2023-02-28T14:03:02;102208.69;;;5.47;100.00
58245;BME280;44550;43.864;25.986;2023-02-28T14:07:12;102222.41;;;5.45;100.00
58245;BME280;44550;43.864;25.986;2023-02-28T14:11:24;102218.19;;;5.47;100.00
58245;BME280;44550;43.864;25.986;2023-02-28T14:15:28;102226.19;;;5.51;100.00
58245;BME280;44550;43.864;25.986;2023-02-28T14:19:39;102220.34;;;5.55;100.00
58245;BME280;44550;43.864;25.986;2023-02-28T14:23:55;102212.34;;;5.51;100.00
58245;BME280;44550;43.864;25.986;2023-02-28T14:28:10;102211.50;;;5.52;100.00
58245;BME280;44550;43.864;25.986;2023-02-28T14:32:18;102205.81;;;5.59;100.00
58245;BME280;44550;43.864;25.986;2023-02-28T14:36:30;102212.56;;;5.55;100.00
58245;BME280;44550;43.864;25.986;2023-02-28T14:41:12;102208.34;;;5.57;100.00
58245;BME280;44550;43.864;25.986;2023-02-28T14:45:33;102206.69;;;5.59;100.00
58245;BME280;44550;43.864;25.986;2023-02-28T14:50:04;102212.16;;;5.64;100.00
58245;BME280;44550;43.864;25.986;2023-02-28T14:54:42;102198.09;;;5.77;100.00
58245;BME280;44550;43.864;25.986;2023-02-28T14:58:59;102211.09;;;5.60;100.00
58245;BME280;44550;43.864;25.986;2023-02-28T15:03:13;102204.72;;;5.54;100.00
58245;BME280;44550;43.864;25.986;2023-02-28T15:44:49;102229.50;;;5.49;100.00
58245;BME280;44550;43.864;25.986;2023-02-28T15:49:35;102244.56;;;5.56;100.00
58245;BME280;44550;43.864;25.986;2023-02-28T15:54:23;102237.47;;;5.52;100.00
58245;BME280;44550;43.864;25.986;2023-02-28T16:25:24;102253.63;;;5.30;100.00
58245;BME280;44550;43.864;25.986;2023-02-28T16:30:04;102243.88;;;5.26;100.00
58245;BME280;44550;43.864;25.986;2023-02-28T16:34:43;102257.59;;;5.23;100.00
58245;BME280;44550;43.864;25.986;2023-02-28T16:39:01;102260.50;;;5.13;100.00
58245;BME280;44550;43.864;25.986;2023-02-28T16:43:34;102263.75;;;5.09;100.00
58245;BME280;44550;43.864;25.986;2023-02-28T16:48:01;102267.53;;;5.15;100.00
58245;BME280;44550;43.864;25.986;2023-02-28T16:52:07;102269.47;;;5.19;100.00
58245;BME280;44550;43.864;25.986;2023-02-28T16:56:25;102273.56;;;5.14;100.00
58245;BME280;44550;43.864;25.986;2023-02-28T17:05:57;102269.41;;;5.18;100.00
58245;BME280;44550;43.864;25.986;2023-02-28T17:09:57;102264.63;;;5.09;100.00
58245;BME280;44550;43.864;25.986;2023-02-28T17:14:28;102260.97;;;5.06;100.00
58245;BME280;44550;43.864;25.986;2023-02-28T17:19:38;102253.31;;;5.07;100.00
58245;BME280;44550;43.864;25.986;2023-02-28T17:24:09;102253.31;;;5.07;100.00
58245;BME280;44550;43.864;25.986;2023-02-28T17:29:13;102266.16;;;5.06;100.00
58245;BME280;44550;43.864;25.986;2023-02-28T17:34:07;102247.69;;;5.00;100.00
58245;BME280;44550;43.864;25.986;2023-02-28T17:39:05;102278.97;;;5.19;100.00
58245;BME280;44550;43.864;25.986;2023-02-28T17:43:52;102283.75;;;5.11;100.00
58245;BME280;44550;43.864;25.986;2023-02-28T17:53:32;102276.38;;;5.03;100.00
58245;BME280;44550;43.864;25.986;2023-02-28T18:19:18;102293.75;;;4.89;100.00
58245;BME280;44550;43.864;25.986;2023-02-28T19:06:20;102309.50;;;4.61;100.00
58245;BME280;44550;43.864;25.986;2023-02-28T19:11:25;102315.38;;;4.58;100.00
58245;BME280;44550;43.864;25.986;2023-02-28T19:16:19;102316.44;;;4.62;100.00
58245;BME280;44550;43.864;25.986;2023-02-28T19:20:46;102309.50;;;4.61;100.00
58245;BME280;44550;43.864;25.986;2023-02-28T19:30:44;102290.03;;;4.53;100.00
58245;BME280;44550;43.864;25.986;2023-02-28T19:35:15;102281.59;;;4.57;100.00
58245;BME280;44550;43.864;25.986;2023-02-28T19:39:59;102281.91;;;4.46;100.00
58245;BME280;44550;43.864;25.986;2023-02-28T19:44:49;102279.66;;;4.53;100.00
58245;BME280;44550;43.864;25.986;2023-02-28T19:55:19;102275.19;;;4.50;100.00
58245;BME280;44550;43.864;25.986;2023-02-28T20:00:26;102269.75;;;4.60;100.00
58245;BME280;44550;43.864;25.986;2023-02-28T20:05:00;102277.00;;;4.51;100.00
58245;BME280;44550;43.864;25.986;2023-02-28T20:09:15;102267.78;;;4.56;100.00
58245;BME280;44550;43.864;25.986;2023-02-28T20:13:36;102277.25;;;4.56;100.00
58245;BME280;44550;43.864;25.986;2023-02-28T20:18:58;102273.53;;;4.51;100.00
58245;BME280;44550;43.864;25.986;2023-02-28T20:22:27;102272.53;;;4.48;100.00
58245;BME280;44550;43.864;25.986;2023-02-28T20:26:28;102260.09;;;4.58;100.00
58245;BME280;44550;43.864;25.986;2023-02-28T20:30:43;102256.34;;;4.53;100.00
58245;BME280;44550;43.864;25.986;2023-02-28T20:34:47;102256.19;;;4.50;100.00
58245;BME280;44550;43.864;25.986;2023-02-28T20:38:47;102246.97;;;4.55;100.00
58245;BME280;44550;43.864;25.986;2023-02-28T20:47:42;102234.38;;;4.61;100.00
58245;BME280;44550;43.864;25.986;2023-02-28T20:51:52;102225.84;;;4.63;100.00
58245;BME280;44550;43.864;25.986;2023-02-28T20:56:02;102222.72;;;4.69;100.00
58245;BME280;44550;43.864;25.986;2023-02-28T21:00:05;102225.22;;;4.67;100.00
58245;BME280;44550;43.864;25.986;2023-02-28T21:04:29;102225.84;;;4.63;100.00
58245;BME280;44550;43.864;25.986;2023-02-28T21:08:45;102224.41;;;4.68;100.00
58245;BME280;44550;43.864;25.986;2023-02-28T21:12:51;102221.88;;;4.70;100.00
58245;BME280;44550;43.864;25.986;2023-02-28T21:21:23;102231.16;;;4.81;100.00
58245;BME280;44550;43.864;25.986;2023-02-28T21:25:32;102225.09;;;4.81;100.00
58245;BME280;44550;43.864;25.986;2023-02-28T21:29:56;102213.53;;;4.90;100.00
58245;BME280;44550;43.864;25.986;2023-02-28T21:34:10;102208.22;;;4.89;100.00
58245;BME280;44550;43.864;25.986;2023-02-28T21:38:25;102212.88;;;4.94;100.00
58245;BME280;44550;43.864;25.986;2023-02-28T21:42:31;102213.09;;;4.83;100.00
58245;BME280;44550;43.864;25.986;2023-02-28T21:46:39;102207.84;;;4.81;100.00
58245;BME280;44550;43.864;25.986;2023-02-28T21:50:53;102202.88;;;4.86;100.00
58245;BME280;44550;43.864;25.986;2023-02-28T21:55:07;102204.34;;;4.81;100.00
58245;BME280;44550;43.864;25.986;2023-02-28T21:59:16;102197.63;;;4.84;100.00
58245;BME280;44550;43.864;25.986;2023-02-28T22:03:31;102197.53;;;4.83;100.00
58245;BME280;44550;43.864;25.986;2023-02-28T22:07:45;102191.72;;;4.87;100.00
58245;BME280;44550;43.864;25.986;2023-02-28T22:12:08;102201.59;;;4.78;100.00
58245;BME280;44550;43.864;25.986;2023-02-28T22:16:32;102193.72;;;4.76;100.00
58245;BME280;44550;43.864;25.986;2023-02-28T22:20:53;102200.38;;;4.71;100.00
58245;BME280;44550;43.864;25.986;2023-02-28T22:25:02;102195.25;;;4.72;100.00
58245;BME280;44550;43.864;25.986;2023-02-28T22:29:21;102199.19;;;4.81;100.00
58245;BME280;44550;43.864;25.986;2023-02-28T22:33:42;102203.88;;;4.88;100.00
58245;BME280;44550;43.864;25.986;2023-02-28T22:38:11;102204.34;;;4.81;100.00
58245;BME280;44550;43.864;25.986;2023-02-28T22:42:27;102195.84;;;4.83;100.00
58245;BME280;44550;43.864;25.986;2023-02-28T22:57:28;102203.38;;;4.95;100.00
58245;BME280;44550;43.864;25.986;2023-02-28T23:01:54;102197.97;;;5.07;100.00
58245;BME280;44550;43.864;25.986;2023-02-28T23:34:22;102215.69;;;4.99;100.00
58245;BME280;44550;43.864;25.986;2023-02-28T23:38:31;102217.22;;;5.12;100.00
58245;BME280;44550;43.864;25.986;2023-02-28T23:42:52;102226.78;;;4.97;100.00
58245;BME280;44550;43.864;25.986;2023-02-28T23:47:16;102226.06;;;4.99;100.00
58245;BME280;44550;43.864;25.986;2023-02-28T23:52:18;102220.22;;;5.03;100.00
58245;BME280;44550;43.864;25.986;2023-02-28T23:56:26;102217.41;;;5.15;100.00
